createdAt,value
2019-04-26T00:00:18.068Z,0
2019-04-26T00:01:18.289Z,0
2019-04-26T00:02:18.393Z,0
2019-04-26T00:03:18.495Z,0
2019-04-26T00:04:18.464Z,0
2019-04-26T00:05:17.424Z,0
2019-04-26T00:06:17.402Z,0
2019-04-26T00:07:17.404Z,0
2019-04-26T00:08:17.951Z,0
2019-04-26T00:09:17.895Z,0
2019-04-26T00:10:18.116Z,0
2019-04-26T00:11:18.177Z,0
2019-04-26T00:12:18.323Z,0
2019-04-26T00:13:18.319Z,0
2019-04-26T00:14:18.298Z,0
2019-04-26T00:15:18.455Z,0
2019-04-26T00:16:17.378Z,0
2019-04-26T00:17:17.591Z,0
2019-04-26T00:18:17.467Z,0
2019-04-26T00:19:17.881Z,0
2019-04-26T00:20:17.525Z,0
2019-04-26T00:21:18.319Z,0
2019-04-26T00:22:17.525Z,0
2019-04-26T00:23:18.290Z,0
2019-04-26T00:24:17.433Z,0
2019-04-26T00:25:18.435Z,0
2019-04-26T00:26:17.700Z,0
2019-04-26T00:27:17.524Z,0
2019-04-26T00:28:17.517Z,0
2019-04-26T00:29:17.461Z,0
2019-04-26T00:30:17.519Z,0
2019-04-26T00:31:17.456Z,0
2019-04-26T00:32:17.553Z,0
2019-04-26T00:33:17.470Z,0
2019-04-26T00:34:17.583Z,0
2019-04-26T00:35:17.787Z,0
2019-04-26T00:36:18.627Z,0
2019-04-26T00:37:17.961Z,0
2019-04-26T00:38:18.229Z,0
2019-04-26T00:39:18.209Z,0
2019-04-26T00:40:18.239Z,0
2019-04-26T00:41:18.453Z,0
2019-04-26T00:42:18.521Z,0
2019-04-26T00:43:18.572Z,0
2019-04-26T00:44:18.616Z,0
2019-04-26T00:45:18.689Z,0
2019-04-26T00:46:17.474Z,0
2019-04-26T00:47:17.469Z,0
2019-04-26T00:48:17.478Z,0
2019-04-26T00:49:17.416Z,0
2019-04-26T00:50:17.524Z,0
2019-04-26T00:51:17.538Z,0
2019-04-26T00:52:17.526Z,0
2019-04-26T00:53:17.632Z,0
2019-04-26T00:54:17.989Z,0
2019-04-26T00:55:17.671Z,0
2019-04-26T00:56:18.016Z,0
2019-04-26T00:57:18.240Z,0
2019-04-26T00:58:18.628Z,0
2019-04-26T00:59:18.396Z,0
2019-04-26T01:00:18.156Z,0
2019-04-26T01:01:18.582Z,0
2019-04-26T01:02:18.538Z,0
2019-04-26T01:03:18.561Z,0
2019-04-26T01:04:17.422Z,0
2019-04-26T01:05:17.521Z,0
2019-04-26T01:06:17.443Z,0
2019-04-26T01:07:17.503Z,0
2019-04-26T01:08:17.498Z,0
2019-04-26T01:09:17.488Z,0
2019-04-26T01:10:17.773Z,0
2019-04-26T01:11:17.690Z,0
2019-04-26T01:12:17.808Z,0
2019-04-26T01:13:17.875Z,0
2019-04-26T01:14:17.856Z,0
2019-04-26T01:15:20.100Z,0
2019-04-26T01:16:18.363Z,0
2019-04-26T01:17:18.621Z,0
2019-04-26T01:18:18.193Z,0
2019-04-26T01:19:18.543Z,0
2019-04-26T01:20:18.842Z,0
2019-04-26T01:21:18.497Z,0
2019-04-26T01:22:18.390Z,0
2019-04-26T01:23:17.516Z,0
2019-04-26T01:24:18.386Z,0
2019-04-26T01:25:17.613Z,0
2019-04-26T01:26:17.939Z,0
2019-04-26T01:27:18.543Z,0
2019-04-26T01:28:18.480Z,0
2019-04-26T01:29:18.617Z,0
2019-04-26T01:30:18.337Z,0
2019-04-26T01:31:18.590Z,0
2019-04-26T01:32:17.721Z,0
2019-04-26T01:33:18.639Z,0
2019-04-26T01:34:17.768Z,0
2019-04-26T01:35:17.869Z,0
2019-04-26T01:36:18.264Z,0
2019-04-26T01:37:18.291Z,0
2019-04-26T01:38:17.569Z,0
2019-04-26T01:39:17.525Z,0
2019-04-26T01:40:17.590Z,0
2019-04-26T01:41:17.610Z,0
2019-04-26T01:42:17.635Z,0
2019-04-26T01:43:17.478Z,0
2019-04-26T01:44:17.591Z,0
2019-04-26T01:45:17.591Z,0
2019-04-26T01:46:17.583Z,0
2019-04-26T01:47:17.517Z,0
2019-04-26T01:48:17.577Z,0
2019-04-26T01:49:17.532Z,0
2019-04-26T01:50:17.598Z,0
2019-04-26T01:51:17.523Z,0
2019-04-26T01:52:17.522Z,0
2019-04-26T01:53:17.540Z,0
2019-04-26T01:54:17.595Z,0
2019-04-26T01:55:17.537Z,0
2019-04-26T01:56:17.492Z,0
2019-04-26T01:57:17.597Z,0
2019-04-26T01:58:17.624Z,0
2019-04-26T01:59:17.597Z,0
2019-04-26T02:00:17.598Z,0
2019-04-26T02:01:17.606Z,0
2019-04-26T02:02:17.605Z,0
2019-04-26T02:03:17.602Z,0
2019-04-26T02:04:17.531Z,0
2019-04-26T02:05:17.609Z,0
2019-04-26T02:06:25.308Z,0
2019-04-26T02:07:17.530Z,0
2019-04-26T02:08:17.557Z,0
2019-04-26T02:09:17.671Z,0
2019-04-26T02:10:17.537Z,0
2019-04-26T02:11:17.674Z,0
2019-04-26T02:12:17.602Z,0
2019-04-26T02:13:17.538Z,0
2019-04-26T02:14:17.607Z,0
2019-04-26T02:15:17.606Z,0
2019-04-26T02:16:17.616Z,0
2019-04-26T02:17:17.607Z,0
2019-04-26T02:18:17.598Z,0
2019-04-26T02:19:17.564Z,0
2019-04-26T02:20:17.566Z,0
2019-04-26T02:21:17.537Z,0
2019-04-26T02:22:17.593Z,0
2019-04-26T02:23:17.599Z,0
2019-04-26T02:24:17.566Z,0
2019-04-26T02:25:17.483Z,0
2019-04-26T02:26:17.502Z,0
2019-04-26T02:27:17.509Z,0
2019-04-26T02:28:17.567Z,0
2019-04-26T02:29:17.566Z,0
2019-04-26T02:30:17.510Z,0
2019-04-26T02:31:17.580Z,0
2019-04-26T02:32:17.566Z,0
2019-04-26T02:33:17.462Z,0
2019-04-26T02:34:17.482Z,0
2019-04-26T02:35:17.548Z,0
2019-04-26T02:36:17.476Z,0
2019-04-26T02:37:17.594Z,0
2019-04-26T02:38:17.543Z,0
2019-04-26T02:39:17.632Z,0
2019-04-26T02:40:17.626Z,0
2019-04-26T02:41:17.556Z,0
2019-04-26T02:42:17.630Z,0
2019-04-26T02:43:17.572Z,0
2019-04-26T02:44:17.561Z,0
2019-04-26T02:45:17.620Z,0
2019-04-26T02:46:17.561Z,0
2019-04-26T02:47:17.563Z,0
2019-04-26T02:48:17.578Z,0
2019-04-26T02:49:17.578Z,0
2019-04-26T02:50:17.630Z,0
2019-04-26T02:51:17.628Z,0
2019-04-26T02:52:17.627Z,0
2019-04-26T02:53:17.627Z,0
2019-04-26T02:54:17.570Z,0
2019-04-26T02:55:17.633Z,0
2019-04-26T02:56:17.555Z,0
2019-04-26T02:57:17.625Z,0
2019-04-26T02:58:17.551Z,0
2019-04-26T02:59:17.633Z,0
2019-04-26T03:00:17.509Z,0
2019-04-26T03:01:17.587Z,0
2019-04-26T03:02:17.545Z,0
2019-04-26T03:03:17.633Z,0
2019-04-26T03:04:17.607Z,0
2019-04-26T03:05:17.519Z,0
2019-04-26T03:06:17.585Z,0
2019-04-26T03:07:17.632Z,0
2019-04-26T03:08:17.543Z,0
2019-04-26T03:09:17.661Z,0
2019-04-26T03:10:17.659Z,0
2019-04-26T03:11:17.933Z,0
2019-04-26T03:12:17.667Z,0
2019-04-26T03:13:17.580Z,0
2019-04-26T03:14:17.581Z,0
2019-04-26T03:15:17.581Z,0
2019-04-26T03:16:17.708Z,0
2019-04-26T03:17:17.606Z,0
2019-04-26T03:18:17.582Z,0
2019-04-26T03:19:17.645Z,0
2019-04-26T03:20:17.582Z,0
2019-04-26T03:21:17.590Z,0
2019-04-26T03:22:17.764Z,0
2019-04-26T03:23:17.646Z,0
2019-04-26T03:24:17.586Z,4
2019-04-26T03:25:17.580Z,4
2019-04-26T03:26:17.599Z,4
2019-04-26T03:27:17.587Z,4
2019-04-26T03:28:17.652Z,4
2019-04-26T03:29:17.587Z,4
2019-04-26T03:30:21.399Z,4
2019-04-26T03:31:17.969Z,8
2019-04-26T03:32:17.604Z,8
2019-04-26T03:33:17.686Z,8
2019-04-26T03:34:18.171Z,12
2019-04-26T03:35:17.606Z,12
2019-04-26T03:36:17.616Z,12
2019-04-26T03:37:20.727Z,20
2019-04-26T03:38:17.673Z,24
2019-04-26T03:39:17.604Z,24
2019-04-26T03:40:17.672Z,28
2019-04-26T03:41:17.677Z,36
2019-04-26T03:42:17.661Z,40
2019-04-26T03:43:17.605Z,48
2019-04-26T03:44:17.602Z,56
2019-04-26T03:45:17.608Z,64
2019-04-26T03:46:17.676Z,76
2019-04-26T03:47:17.736Z,88
2019-04-26T03:48:17.616Z,104
2019-04-26T03:49:17.689Z,116
2019-04-26T03:50:17.702Z,132
2019-04-26T03:51:17.613Z,152
2019-04-26T03:52:17.688Z,172
2019-04-26T03:53:17.627Z,196
2019-04-26T03:54:17.688Z,220
2019-04-26T03:55:17.612Z,244
2019-04-26T03:56:17.613Z,276
2019-04-26T03:57:17.690Z,304
2019-04-26T03:58:17.683Z,336
2019-04-26T03:59:17.607Z,376
2019-04-26T04:00:17.608Z,428
2019-04-26T04:01:17.599Z,476
2019-04-26T04:02:17.608Z,524
2019-04-26T04:03:17.680Z,576
2019-04-26T04:04:17.615Z,644
2019-04-26T04:05:17.683Z,720
2019-04-26T04:06:17.605Z,800
2019-04-26T04:07:17.683Z,924
2019-04-26T04:08:17.679Z,1084
2019-04-26T04:09:18.126Z,1200
2019-04-26T04:10:17.599Z,1244
2019-04-26T04:11:17.646Z,1288
2019-04-26T04:12:17.567Z,1372
2019-04-26T04:13:17.543Z,1468
2019-04-26T04:14:17.743Z,1604
2019-04-26T04:15:17.615Z,1772
2019-04-26T04:16:17.554Z,2000
2019-04-26T04:17:17.625Z,2224
2019-04-26T04:18:17.630Z,2436
2019-04-26T04:19:17.672Z,2568
2019-04-26T04:20:17.682Z,2656
2019-04-26T04:21:17.593Z,2768
2019-04-26T04:22:17.675Z,2904
2019-04-26T04:23:17.664Z,3056
2019-04-26T04:24:17.680Z,3208
2019-04-26T04:25:17.688Z,3384
2019-04-26T04:26:17.571Z,3584
2019-04-26T04:27:17.659Z,3788
2019-04-26T04:28:17.561Z,3956
2019-04-26T04:29:17.692Z,4116
2019-04-26T04:30:17.662Z,4280
2019-04-26T04:31:17.582Z,4436
2019-04-26T04:32:17.608Z,4580
2019-04-26T04:33:17.620Z,4736
2019-04-26T04:34:17.617Z,4892
2019-04-26T04:35:17.696Z,5052
2019-04-26T04:36:17.625Z,5228
2019-04-26T04:37:17.702Z,5424
2019-04-26T04:38:17.697Z,5616
2019-04-26T04:39:17.730Z,5792
2019-04-26T04:40:17.715Z,5904
2019-04-26T04:41:17.774Z,5892
2019-04-26T04:42:17.714Z,6052
2019-04-26T04:43:17.892Z,6348
2019-04-26T04:44:17.673Z,6720
2019-04-26T04:45:17.715Z,6944
2019-04-26T04:46:17.993Z,7004
2019-04-26T04:47:24.529Z,7016
2019-04-26T04:48:17.719Z,7288
2019-04-26T04:49:17.584Z,7440
2019-04-26T04:50:17.704Z,7672
2019-04-26T04:51:17.708Z,7968
2019-04-26T04:52:17.713Z,8156
2019-04-26T04:53:17.589Z,8412
2019-04-26T04:54:17.707Z,8892
2019-04-26T04:55:17.663Z,9584
2019-04-26T04:56:17.583Z,10348
2019-04-26T04:57:17.718Z,10968
2019-04-26T04:58:17.687Z,11612
2019-04-26T04:59:17.626Z,12408
2019-04-26T05:00:17.712Z,12816
2019-04-26T05:01:17.718Z,13408
2019-04-26T05:02:17.715Z,13972
2019-04-26T05:03:17.718Z,14192
2019-04-26T05:04:17.648Z,14208
2019-04-26T05:05:17.721Z,13876
2019-04-26T05:06:17.646Z,13868
2019-04-26T05:07:17.720Z,14160
2019-04-26T05:08:17.727Z,14564
2019-04-26T05:09:17.639Z,14936
2019-04-26T05:10:17.649Z,14896
2019-04-26T05:11:17.732Z,14464
2019-04-26T05:12:17.645Z,14244
2019-04-26T05:13:17.651Z,14624
2019-04-26T05:14:17.658Z,15292
2019-04-26T05:15:17.725Z,13816
2019-04-26T05:16:17.691Z,12648
2019-04-26T05:17:17.656Z,12552
2019-04-26T05:18:17.666Z,12636
2019-04-26T05:19:17.713Z,12704
2019-04-26T05:20:17.668Z,12676
2019-04-26T05:21:17.602Z,12708
2019-04-26T05:22:17.728Z,13076
2019-04-26T05:23:17.732Z,13580
2019-04-26T05:24:17.608Z,14036
2019-04-26T05:25:17.701Z,15104
2019-04-26T05:26:17.720Z,14944
2019-04-26T05:27:17.613Z,13736
2019-04-26T05:28:17.735Z,13176
2019-04-26T05:29:17.677Z,12572
2019-04-26T05:30:17.736Z,11676
2019-04-26T05:31:17.736Z,11216
2019-04-26T05:32:17.681Z,11088
2019-04-26T05:33:17.638Z,12368
2019-04-26T05:34:17.738Z,14800
2019-04-26T05:35:17.636Z,16176
2019-04-26T05:36:17.740Z,19296
2019-04-26T05:37:17.728Z,20576
2019-04-26T05:38:18.600Z,18788
2019-04-26T05:39:17.764Z,16648
2019-04-26T05:40:17.736Z,16056
2019-04-26T05:41:17.755Z,18844
2019-04-26T05:42:17.755Z,21728
2019-04-26T05:43:17.766Z,22336
2019-04-26T05:44:17.692Z,22816
2019-04-26T05:45:17.688Z,23296
2019-04-26T05:46:17.694Z,25856
2019-04-26T05:47:17.781Z,24416
2019-04-26T05:48:17.695Z,20668
2019-04-26T05:49:17.772Z,22240
2019-04-26T05:50:17.694Z,27616
2019-04-26T05:51:17.786Z,28768
2019-04-26T05:52:17.766Z,25280
2019-04-26T05:53:17.763Z,23040
2019-04-26T05:54:17.773Z,24960
2019-04-26T05:55:17.756Z,26880
2019-04-26T05:56:17.772Z,25760
2019-04-26T05:57:17.698Z,21984
2019-04-26T05:58:17.701Z,19376
2019-04-26T05:59:17.769Z,17832
2019-04-26T06:00:17.777Z,17748
2019-04-26T06:01:17.772Z,22784
2019-04-26T06:02:17.706Z,26912
2019-04-26T06:03:17.707Z,26752
2019-04-26T06:04:17.708Z,23680
2019-04-26T06:05:17.764Z,22944
2019-04-26T06:06:17.707Z,22560
2019-04-26T06:07:17.702Z,22624
2019-04-26T06:08:17.714Z,20864
2019-04-26T06:09:17.791Z,18812
2019-04-26T06:10:17.711Z,18624
2019-04-26T06:11:17.712Z,17756
2019-04-26T06:12:17.785Z,16440
2019-04-26T06:13:17.783Z,14792
2019-04-26T06:14:17.787Z,14276
2019-04-26T06:15:17.774Z,14232
2019-04-26T06:16:17.778Z,13992
2019-04-26T06:17:17.835Z,13732
2019-04-26T06:18:17.780Z,13764
2019-04-26T06:19:17.737Z,13928
2019-04-26T06:20:23.125Z,14240
2019-04-26T06:21:17.762Z,14456
2019-04-26T06:22:17.740Z,15260
2019-04-26T06:23:17.766Z,16060
2019-04-26T06:24:17.653Z,16296
2019-04-26T06:25:17.710Z,17476
2019-04-26T06:26:17.743Z,17752
2019-04-26T06:27:17.718Z,17200
2019-04-26T06:28:17.658Z,16624
2019-04-26T06:29:17.693Z,17060
2019-04-26T06:30:17.732Z,16828
2019-04-26T06:31:17.715Z,17928
2019-04-26T06:32:17.808Z,18972
2019-04-26T06:33:17.786Z,17608
2019-04-26T06:34:17.710Z,16424
2019-04-26T06:36:17.823Z,13820
2019-04-26T06:37:17.714Z,13804
2019-04-26T06:38:17.710Z,14196
2019-04-26T06:39:17.860Z,16304
2019-04-26T06:40:17.806Z,17308
2019-04-26T06:41:17.753Z,17324
2019-04-26T06:42:17.729Z,18248
2019-04-26T06:43:17.804Z,19192
2019-04-26T06:44:17.807Z,19236
2019-04-26T06:45:17.733Z,18360
2019-04-26T06:46:17.745Z,17272
2019-04-26T06:47:17.819Z,15664
2019-04-26T06:48:17.808Z,13288
2019-04-26T06:49:17.807Z,11860
2019-04-26T06:50:17.811Z,10872
2019-04-26T06:51:24.715Z,10236
2019-04-26T06:52:17.757Z,10076
2019-04-26T06:53:17.773Z,10316
2019-04-26T06:54:17.747Z,10736
2019-04-26T06:55:17.739Z,11424
2019-04-26T06:56:17.812Z,11688
2019-04-26T06:57:17.768Z,11324
2019-04-26T06:58:17.770Z,10828
2019-04-26T06:59:17.713Z,10308
2019-04-26T07:00:17.819Z,9844
2019-04-26T07:01:17.814Z,9540
2019-04-26T07:02:17.815Z,9796
2019-04-26T07:03:17.828Z,10440
2019-04-26T07:04:17.746Z,11976
2019-04-26T07:05:17.768Z,13484
2019-04-26T07:06:17.821Z,14920
2019-04-26T07:07:17.821Z,15116
2019-04-26T07:08:17.830Z,14592
2019-04-26T07:09:17.757Z,13980
2019-04-26T07:10:17.758Z,14320
2019-04-26T07:11:17.754Z,14036
2019-04-26T07:12:17.753Z,14056
2019-04-26T07:13:17.753Z,15848
2019-04-26T07:14:17.833Z,17336
2019-04-26T07:15:27.979Z,17096
2019-04-26T07:16:22.994Z,16396
2019-04-26T07:17:17.828Z,17272
2019-04-26T07:18:17.796Z,18136
2019-04-26T07:19:17.775Z,18036
2019-04-26T07:20:17.841Z,17496
2019-04-26T07:21:17.852Z,17512
2019-04-26T07:22:17.833Z,17992
2019-04-26T07:23:17.761Z,18584
2019-04-26T07:24:17.836Z,18884
2019-04-26T07:25:17.972Z,20028
2019-04-26T07:26:17.778Z,22688
2019-04-26T07:27:17.763Z,25600
2019-04-26T07:28:17.814Z,24480
2019-04-26T07:29:17.787Z,23392
2019-04-26T07:30:17.921Z,22208
2019-04-26T07:31:17.837Z,21184
2019-04-26T07:32:17.839Z,21248
2019-04-26T07:33:17.769Z,21408
2019-04-26T07:34:17.847Z,20880
2019-04-26T07:35:17.771Z,20260
2019-04-26T07:36:17.771Z,21504
2019-04-26T07:37:17.847Z,22944
2019-04-26T07:38:17.849Z,22976
2019-04-26T07:39:20.245Z,20888
2019-04-26T07:40:17.845Z,18272
2019-04-26T07:41:17.768Z,16288
2019-04-26T07:42:17.835Z,15376
2019-04-26T07:43:17.763Z,15332
2019-04-26T07:44:17.769Z,15700
2019-04-26T07:45:17.844Z,16396
2019-04-26T07:46:17.782Z,16924
2019-04-26T07:47:17.839Z,15924
2019-04-26T07:48:17.772Z,14860
2019-04-26T07:49:17.782Z,16416
2019-04-26T07:50:17.913Z,20164
2019-04-26T07:51:17.858Z,23456
2019-04-26T07:52:17.783Z,23552
2019-04-26T07:53:17.853Z,20368
2019-04-26T07:54:17.823Z,17208
2019-04-26T07:55:17.852Z,15972
2019-04-26T07:56:17.865Z,16148
2019-04-26T07:57:17.860Z,18504
2019-04-26T07:58:17.818Z,22208
2019-04-26T07:59:17.749Z,22912
2019-04-26T08:00:17.813Z,20108
2019-04-26T08:01:17.857Z,18308
2019-04-26T08:02:17.818Z,17988
2019-04-26T08:03:17.796Z,17384
2019-04-26T08:04:17.845Z,16700
2019-04-26T08:05:17.847Z,16496
2019-04-26T08:06:17.845Z,16324
2019-04-26T08:07:17.850Z,16436
2019-04-26T08:08:17.757Z,17612
2019-04-26T08:09:27.013Z,20200
2019-04-26T08:10:17.869Z,21920
2019-04-26T08:11:17.871Z,20196
2019-04-26T08:12:17.797Z,17928
2019-04-26T08:13:17.865Z,16848
2019-04-26T08:14:17.802Z,16800
2019-04-26T08:15:17.913Z,17088
2019-04-26T08:16:17.869Z,16960
2019-04-26T08:17:17.817Z,15400
2019-04-26T08:18:17.879Z,14192
2019-04-26T08:19:17.874Z,13964
2019-04-26T08:20:17.872Z,14584
2019-04-26T08:21:18.526Z,15628
2019-04-26T08:22:23.009Z,16780
2019-04-26T08:23:37.872Z,17060
2019-04-26T08:24:18.881Z,15756
2019-04-26T08:25:17.896Z,14344
2019-04-26T08:26:17.878Z,14748
2019-04-26T08:27:23.092Z,16196
2019-04-26T08:28:17.822Z,17756
2019-04-26T08:29:17.811Z,19660
2019-04-26T08:30:19.233Z,19548
2019-04-26T08:31:21.181Z,17980
2019-04-26T08:32:17.833Z,17628
2019-04-26T08:33:18.174Z,19068
2019-04-26T08:34:21.141Z,20612
2019-04-26T08:35:21.584Z,21632
2019-04-26T08:36:17.851Z,20812
2019-04-26T08:37:19.216Z,19288
2019-04-26T08:38:22.079Z,17688
2019-04-26T08:39:18.081Z,15992
2019-04-26T08:40:25.516Z,14700
2019-04-26T08:41:17.860Z,14236
2019-04-26T08:42:23.465Z,14640
2019-04-26T08:43:18.276Z,15556
2019-04-26T08:44:17.814Z,16036
2019-04-26T08:45:17.878Z,16188
2019-04-26T08:46:17.881Z,17296
2019-04-26T08:47:24.272Z,20260
2019-04-26T08:48:17.824Z,25472
2019-04-26T08:49:17.873Z,31072
2019-04-26T08:50:17.823Z,34464
2019-04-26T08:51:20.600Z,33152
2019-04-26T08:52:17.833Z,29280
2019-04-26T08:53:17.816Z,25184
2019-04-26T08:54:17.757Z,23072
2019-04-26T08:55:17.850Z,24320
2019-04-26T08:56:20.299Z,26880
2019-04-26T08:57:17.756Z,27264
2019-04-26T08:58:17.788Z,26112
2019-04-26T08:59:17.819Z,23392
2019-04-26T09:00:17.909Z,21568
2019-04-26T09:01:17.920Z,19572
2019-04-26T09:02:17.842Z,18836
2019-04-26T09:03:17.903Z,19376
2019-04-26T09:04:17.909Z,18952
2019-04-26T09:05:17.804Z,19532
2019-04-26T09:06:17.854Z,22400
2019-04-26T09:07:17.919Z,24864
2019-04-26T09:08:17.836Z,27904
2019-04-26T09:09:19.462Z,32192
2019-04-26T09:10:17.837Z,36448
2019-04-26T09:11:25.992Z,36096
2019-04-26T09:12:23.242Z,30464
2019-04-26T09:13:17.843Z,25152
2019-04-26T09:14:17.934Z,20832
2019-04-26T09:15:17.869Z,18856
2019-04-26T09:16:17.966Z,18328
2019-04-26T09:17:17.842Z,20488
2019-04-26T09:18:17.848Z,26752
2019-04-26T09:19:17.916Z,32736
2019-04-26T09:20:28.288Z,31616
2019-04-26T09:21:19.324Z,28256
2019-04-26T09:22:17.922Z,25216
2019-04-26T09:23:17.928Z,21536
2019-04-26T09:24:21.045Z,18992
2019-04-26T09:25:17.848Z,18384
2019-04-26T09:26:17.880Z,19276
2019-04-26T09:27:21.128Z,20632
2019-04-26T09:28:17.822Z,22080
2019-04-26T09:29:17.982Z,24288
2019-04-26T09:30:17.912Z,27008
2019-04-26T09:31:19.634Z,28768
2019-04-26T09:32:17.919Z,26048
2019-04-26T09:33:18.028Z,20712
2019-04-26T09:34:17.850Z,18224
2019-04-26T09:35:17.948Z,18168
2019-04-26T09:36:18.193Z,19576
2019-04-26T09:37:17.892Z,20688
2019-04-26T09:38:17.919Z,20432
2019-04-26T09:39:17.856Z,20532
2019-04-26T09:40:21.701Z,21208
2019-04-26T09:41:17.859Z,22496
2019-04-26T09:42:17.921Z,24576
2019-04-26T09:43:17.860Z,27680
2019-04-26T09:44:17.930Z,30272
2019-04-26T09:45:17.875Z,30400
2019-04-26T09:46:17.852Z,31200
2019-04-26T09:47:17.924Z,32032
2019-04-26T09:48:17.926Z,30080
2019-04-26T09:49:17.854Z,26528
2019-04-26T09:50:17.938Z,28032
2019-04-26T09:51:17.928Z,26464
2019-04-26T09:52:17.853Z,22912
2019-04-26T09:53:17.930Z,20144
2019-04-26T09:54:17.857Z,19964
2019-04-26T09:55:17.868Z,20564
2019-04-26T09:56:17.933Z,20852
2019-04-26T09:57:17.958Z,20576
2019-04-26T09:58:17.908Z,17912
2019-04-26T09:59:17.934Z,15136
2019-04-26T10:00:17.881Z,13728
2019-04-26T10:01:19.611Z,13472
2019-04-26T10:02:17.959Z,14172
2019-04-26T10:03:17.937Z,14652
2019-04-26T10:04:17.868Z,14324
2019-04-26T10:05:22.417Z,14736
2019-04-26T10:06:17.875Z,17436
2019-04-26T10:07:17.873Z,22112
2019-04-26T10:08:17.866Z,23360
2019-04-26T10:09:21.175Z,20028
2019-04-26T10:10:22.928Z,18344
2019-04-26T10:11:17.897Z,19532
2019-04-26T10:12:17.884Z,23520
2019-04-26T10:13:17.953Z,27488
2019-04-26T10:14:17.886Z,29376
2019-04-26T10:15:17.892Z,27904
2019-04-26T10:16:17.887Z,26176
2019-04-26T10:17:17.966Z,24320
2019-04-26T10:18:20.429Z,21888
2019-04-26T10:19:17.890Z,19492
2019-04-26T10:20:17.887Z,18736
2019-04-26T10:21:17.966Z,19128
2019-04-26T10:22:17.971Z,20144
2019-04-26T10:23:17.972Z,22336
2019-04-26T10:24:17.964Z,24672
2019-04-26T10:25:17.965Z,26880
2019-04-26T10:26:17.968Z,28096
2019-04-26T10:27:17.921Z,27168
2019-04-26T10:28:17.908Z,24416
2019-04-26T10:29:17.970Z,21344
2019-04-26T10:30:17.909Z,20400
2019-04-26T10:31:18.642Z,21376
2019-04-26T10:32:21.769Z,21824
2019-04-26T10:33:17.901Z,22496
2019-04-26T10:34:17.871Z,23456
2019-04-26T10:35:21.673Z,25504
2019-04-26T10:36:17.888Z,26784
2019-04-26T10:37:17.889Z,27648
2019-04-26T10:38:19.337Z,27648
2019-04-26T10:39:17.840Z,27008
2019-04-26T10:40:17.892Z,26528
2019-04-26T10:41:17.893Z,27552
2019-04-26T10:42:17.965Z,29760
2019-04-26T10:43:17.895Z,31680
2019-04-26T10:44:17.931Z,33376
2019-04-26T10:45:17.973Z,33440
2019-04-26T10:46:17.968Z,32032
2019-04-26T10:47:17.896Z,31008
2019-04-26T10:48:17.882Z,30816
2019-04-26T10:49:20.515Z,28096
2019-04-26T10:50:17.990Z,27744
2019-04-26T10:51:17.986Z,29728
2019-04-26T10:52:17.986Z,32928
2019-04-26T10:53:17.875Z,36544
2019-04-26T10:54:17.914Z,40480
2019-04-26T10:55:18.001Z,42368
2019-04-26T10:56:20.181Z,40608
2019-04-26T10:57:17.988Z,38560
2019-04-26T10:58:17.990Z,40320
2019-04-26T10:59:17.929Z,44704
2019-04-26T11:00:19.061Z,46144
2019-04-26T11:01:17.982Z,45280
2019-04-26T11:02:17.931Z,43360
2019-04-26T11:03:17.908Z,39680
2019-04-26T11:04:17.981Z,36512
2019-04-26T11:05:19.227Z,34624
2019-04-26T11:06:17.983Z,34016
2019-04-26T11:07:17.909Z,33888
2019-04-26T11:08:17.984Z,32672
2019-04-26T11:09:17.983Z,30720
2019-04-26T11:10:17.995Z,29120
2019-04-26T11:11:17.992Z,28672
2019-04-26T11:12:17.927Z,28160
2019-04-26T11:13:17.929Z,28768
2019-04-26T11:14:18.420Z,30592
2019-04-26T11:15:18.007Z,32928
2019-04-26T11:16:17.942Z,34432
2019-04-26T11:17:17.952Z,34816
2019-04-26T11:18:19.765Z,34368
2019-04-26T11:19:18.003Z,33472
2019-04-26T11:20:17.898Z,32480
2019-04-26T11:21:20.981Z,31904
2019-04-26T11:22:28.547Z,31584
2019-04-26T11:23:18.007Z,31552
2019-04-26T11:24:19.406Z,30656
2019-04-26T11:25:17.941Z,27424
2019-04-26T11:26:17.942Z,22976
2019-04-26T11:27:18.009Z,19620
2019-04-26T11:28:21.283Z,17956
2019-04-26T11:29:18.001Z,17036
2019-04-26T11:30:20.922Z,16620
2019-04-26T11:31:17.926Z,16800
2019-04-26T11:32:18.000Z,17248
2019-04-26T11:33:18.004Z,17324
2019-04-26T11:34:19.246Z,17040
2019-04-26T11:35:17.952Z,16012
2019-04-26T11:36:18.010Z,14336
2019-04-26T11:37:19.352Z,12484
2019-04-26T11:38:17.953Z,11108
2019-04-26T11:39:18.019Z,10228
2019-04-26T11:40:17.953Z,9792
2019-04-26T11:41:17.948Z,9816
2019-04-26T11:42:18.014Z,10340
2019-04-26T11:43:19.576Z,11164
2019-04-26T11:44:18.043Z,11908
2019-04-26T11:45:18.035Z,12632
2019-04-26T11:46:21.774Z,13528
2019-04-26T11:47:17.962Z,14372
2019-04-26T11:48:17.992Z,15220
2019-04-26T11:49:18.030Z,16204
2019-04-26T11:50:17.948Z,17168
2019-04-26T11:51:17.968Z,17460
2019-04-26T11:52:17.882Z,16904
2019-04-26T11:53:17.969Z,15748
2019-04-26T11:54:20.770Z,14332
2019-04-26T11:55:17.883Z,13256
2019-04-26T11:56:17.887Z,12740
2019-04-26T11:57:17.929Z,12496
2019-04-26T11:58:22.350Z,12296
2019-04-26T11:59:17.980Z,12208
2019-04-26T12:00:17.956Z,12120
2019-04-26T12:01:18.020Z,12632
2019-04-26T12:02:17.947Z,13400
2019-04-26T12:03:21.243Z,13396
2019-04-26T12:04:17.966Z,13188
2019-04-26T12:05:17.972Z,13116
2019-04-26T12:06:18.037Z,13276
2019-04-26T12:07:17.951Z,13636
2019-04-26T12:08:17.942Z,14184
2019-04-26T12:09:18.029Z,15000
2019-04-26T12:10:18.087Z,14684
2019-04-26T12:11:20.763Z,14584
2019-04-26T12:12:17.971Z,17352
2019-04-26T12:13:21.417Z,22432
2019-04-26T12:14:20.510Z,24864
2019-04-26T12:15:29.720Z,24960
2019-04-26T12:16:18.754Z,25600
2019-04-26T12:17:18.020Z,25792
2019-04-26T12:18:17.930Z,25920
2019-04-26T12:19:19.556Z,25696
2019-04-26T12:20:18.050Z,26048
2019-04-26T12:21:18.055Z,23808
2019-04-26T12:22:18.047Z,19772
2019-04-26T12:23:20.864Z,16728
2019-04-26T12:24:18.049Z,14588
2019-04-26T12:25:18.049Z,12636
2019-04-26T12:26:21.539Z,12092
2019-04-26T12:27:18.157Z,13568
2019-04-26T12:28:18.058Z,15000
2019-04-26T12:29:18.052Z,15376
2019-04-26T12:30:18.045Z,15928
2019-04-26T12:31:18.006Z,16784
2019-04-26T12:32:17.970Z,16664
2019-04-26T12:33:17.971Z,16816
2019-04-26T12:34:19.069Z,16704
2019-04-26T12:35:17.982Z,16720
2019-04-26T12:36:18.142Z,16820
2019-04-26T12:37:19.876Z,18248
2019-04-26T12:38:18.056Z,20532
2019-04-26T12:39:17.980Z,25824
2019-04-26T12:40:19.454Z,31872
2019-04-26T12:41:25.276Z,34400
2019-04-26T12:42:18.111Z,33920
2019-04-26T12:43:20.051Z,31168
2019-04-26T12:44:18.057Z,27168
2019-04-26T12:45:18.339Z,24480
2019-04-26T12:46:18.005Z,23456
2019-04-26T12:47:18.075Z,23712
2019-04-26T12:48:18.003Z,25280
2019-04-26T12:49:20.285Z,27296
2019-04-26T12:50:18.067Z,29344
2019-04-26T12:51:18.068Z,30944
2019-04-26T12:52:21.560Z,30976
2019-04-26T12:53:18.260Z,29056
2019-04-26T12:54:18.069Z,25728
2019-04-26T12:55:19.998Z,22560
2019-04-26T12:56:18.069Z,19520
2019-04-26T12:57:18.009Z,16812
2019-04-26T12:58:18.129Z,14960
2019-04-26T12:59:18.076Z,14316
2019-04-26T13:00:17.950Z,14756
2019-04-26T13:01:17.980Z,15852
2019-04-26T13:02:20.955Z,16824
2019-04-26T13:03:20.416Z,17068
2019-04-26T13:04:18.076Z,16548
2019-04-26T13:05:18.947Z,15836
2019-04-26T13:06:17.964Z,15040
2019-04-26T13:07:24.189Z,13848
2019-04-26T13:08:18.128Z,12684
2019-04-26T13:09:21.732Z,11748
2019-04-26T13:10:18.084Z,11168
2019-04-26T13:11:18.015Z,10988
2019-04-26T13:12:18.085Z,11420
2019-04-26T13:13:18.003Z,12804
2019-04-26T13:14:18.093Z,15040
2019-04-26T13:15:18.091Z,17900
2019-04-26T13:16:21.516Z,19812
2019-04-26T13:17:18.020Z,21252
2019-04-26T13:18:18.089Z,22304
2019-04-26T13:19:19.947Z,22880
2019-04-26T13:20:17.967Z,23744
2019-04-26T13:21:17.986Z,24448
2019-04-26T13:22:18.072Z,24352
2019-04-26T13:23:18.082Z,23520
2019-04-26T13:24:18.026Z,23072
2019-04-26T13:25:26.353Z,23008